sensor_id;sensor_type;location;lat;lon;timestamp;P1;durP1;ratioP1;P2;durP2;ratioP2
20423;SDS011;10371;49.042;8.002;2023-06-22T00:00:23;7.38;;;6.78;;
20423;SDS011;10371;49.042;8.002;2023-06-22T00:01:23;7.43;;;6.82;;
20423;SDS011;10371;49.042;8.002;2023-06-22T00:02:24;7.95;;;6.28;;
20423;SDS011;10371;49.042;8.002;2023-06-22T00:03:24;7.45;;;6.82;;
20423;SDS011;10371;49.042;8.002;2023-06-22T00:04:26;6.95;;;6.25;;
20423;SDS011;10371;49.042;8.002;2023-06-22T00:05:27;6.85;;;6.32;;
20423;SDS011;10371;49.042;8.002;2023-06-22T00:06:27;6.15;;;5.75;;
20423;SDS011;10371;49.042;8.002;2023-06-22T00:07:27;6.55;;;6.05;;
20423;SDS011;10371;49.042;8.002;2023-06-22T00:08:27;6.63;;;5.90;;
20423;SDS011;10371;49.042;8.002;2023-06-22T00:09:28;6.65;;;6.05;;
20423;SDS011;10371;49.042;8.002;2023-06-22T00:10:28;5.85;;;5.35;;
20423;SDS011;10371;49.042;8.002;2023-06-22T00:11:28;5.85;;;5.43;;
20423;SDS011;10371;49.042;8.002;2023-06-22T00:12:29;5.88;;;5.38;;
20423;SDS011;10371;49.042;8.002;2023-06-22T00:13:29;7.03;;;5.93;;
20423;SDS011;10371;49.042;8.002;2023-06-22T00:14:29;6.53;;;5.93;;
20423;SDS011;10371;49.042;8.002;2023-06-22T00:15:29;9.48;;;7.03;;
20423;SDS011;10371;49.042;8.002;2023-06-22T00:16:31;12.60;;;8.25;;
20423;SDS011;10371;49.042;8.002;2023-06-22T00:17:32;13.77;;;8.38;;
20423;SDS011;10371;49.042;8.002;2023-06-22T00:18:33;10.35;;;8.18;;
20423;SDS011;10371;49.042;8.002;2023-06-22T00:19:33;10.98;;;7.60;;
20423;SDS011;10371;49.042;8.002;2023-06-22T00:20:35;9.45;;;7.65;;
20423;SDS011;10371;49.042;8.002;2023-06-22T00:21:39;9.40;;;7.30;;
20423;SDS011;10371;49.042;8.002;2023-06-22T00:22:39;10.07;;;8.05;;
20423;SDS011;10371;49.042;8.002;2023-06-22T00:23:39;9.27;;;8.15;;
20423;SDS011;10371;49.042;8.002;2023-06-22T00:24:41;10.13;;;8.35;;
20423;SDS011;10371;49.042;8.002;2023-06-22T00:25:41;10.43;;;9.38;;
20423;SDS011;10371;49.042;8.002;2023-06-22T00:26:42;10.40;;;8.77;;
20423;SDS011;10371;49.042;8.002;2023-06-22T00:27:42;9.75;;;8.77;;
20423;SDS011;10371;49.042;8.002;2023-06-22T00:28:42;9.10;;;8.35;;
20423;SDS011;10371;49.042;8.002;2023-06-22T00:29:42;10.23;;;9.07;;
20423;SDS011;10371;49.042;8.002;2023-06-22T00:30:43;10.32;;;9.32;;
20423;SDS011;10371;49.042;8.002;2023-06-22T00:31:43;10.23;;;9.38;;
20423;SDS011;10371;49.042;8.002;2023-06-22T00:32:43;10.85;;;9.73;;
20423;SDS011;10371;49.042;8.002;2023-06-22T00:33:45;10.85;;;9.90;;
20423;SDS011;10371;49.042;8.002;2023-06-22T00:34:45;10.55;;;9.63;;
20423;SDS011;10371;49.042;8.002;2023-06-22T00:35:46;10.10;;;9.15;;
20423;SDS011;10371;49.042;8.002;2023-06-22T00:36:46;11.13;;;9.95;;
20423;SDS011;10371;49.042;8.002;2023-06-22T00:37:46;11.15;;;10.18;;
20423;SDS011;10371;49.042;8.002;2023-06-22T00:38:46;11.55;;;10.38;;
20423;SDS011;10371;49.042;8.002;2023-06-22T00:39:47;12.10;;;10.50;;
20423;SDS011;10371;49.042;8.002;2023-06-22T00:40:47;12.20;;;10.38;;
20423;SDS011;10371;49.042;8.002;2023-06-22T00:41:47;14.13;;;11.15;;
20423;SDS011;10371;49.042;8.002;2023-06-22T00:42:48;13.98;;;11.23;;
20423;SDS011;10371;49.042;8.002;2023-06-22T00:43:48;14.68;;;11.40;;
20423;SDS011;10371;49.042;8.002;2023-06-22T00:44:48;13.20;;;10.50;;
20423;SDS011;10371;49.042;8.002;2023-06-22T00:45:49;11.80;;;10.60;;
20423;SDS011;10371;49.042;8.002;2023-06-22T00:46:49;14.82;;;11.63;;
20423;SDS011;10371;49.042;8.002;2023-06-22T00:47:50;12.25;;;10.63;;
20423;SDS011;10371;49.042;8.002;2023-06-22T00:48:52;12.40;;;11.20;;
20423;SDS011;10371;49.042;8.002;2023-06-22T00:49:52;13.77;;;10.35;;
20423;SDS011;10371;49.042;8.002;2023-06-22T00:50:52;11.93;;;10.82;;
20423;SDS011;10371;49.042;8.002;2023-06-22T00:51:55;11.93;;;10.68;;
20423;SDS011;10371;49.042;8.002;2023-06-22T00:52:57;13.40;;;11.40;;
20423;SDS011;10371;49.042;8.002;2023-06-22T00:54:00;13.95;;;12.40;;
20423;SDS011;10371;49.042;8.002;2023-06-22T00:55:01;13.05;;;11.70;;
20423;SDS011;10371;49.042;8.002;2023-06-22T00:56:02;12.68;;;11.38;;
20423;SDS011;10371;49.042;8.002;2023-06-22T00:57:03;12.57;;;11.35;;
20423;SDS011;10371;49.042;8.002;2023-06-22T00:58:05;12.65;;;11.35;;
20423;SDS011;10371;49.042;8.002;2023-06-22T00:59:10;12.38;;;11.07;;
20423;SDS011;10371;49.042;8.002;2023-06-22T01:00:12;11.82;;;10.70;;
20423;SDS011;10371;49.042;8.002;2023-06-22T01:01:17;11.50;;;10.40;;
20423;SDS011;10371;49.042;8.002;2023-06-22T01:02:17;11.90;;;10.65;;
20423;SDS011;10371;49.042;8.002;2023-06-22T01:03:17;12.43;;;10.90;;
20423;SDS011;10371;49.042;8.002;2023-06-22T01:04:18;11.35;;;10.27;;
20423;SDS011;10371;49.042;8.002;2023-06-22T01:05:19;12.82;;;11.55;;
20423;SDS011;10371;49.042;8.002;2023-06-22T01:06:21;12.35;;;10.82;;
20423;SDS011;10371;49.042;8.002;2023-06-22T01:07:35;12.35;;;11.15;;
20423;SDS011;10371;49.042;8.002;2023-06-22T01:09:04;11.30;;;10.40;;
20423;SDS011;10371;49.042;8.002;2023-06-22T01:10:10;12.35;;;11.23;;
20423;SDS011;10371;49.042;8.002;2023-06-22T01:11:19;13.13;;;11.90;;
20423;SDS011;10371;49.042;8.002;2023-06-22T01:12:25;12.63;;;11.43;;
20423;SDS011;10371;49.042;8.002;2023-06-22T01:14:50;12.05;;;10.85;;
20423;SDS011;10371;49.042;8.002;2023-06-22T01:17:10;12.80;;;11.45;;
20423;SDS011;10371;49.042;8.002;2023-06-22T01:18:13;12.07;;;10.98;;
20423;SDS011;10371;49.042;8.002;2023-06-22T01:20:36;12.57;;;11.30;;
20423;SDS011;10371;49.042;8.002;2023-06-22T01:21:37;12.55;;;11.45;;
20423;SDS011;10371;49.042;8.002;2023-06-22T01:22:43;12.93;;;11.55;;
20423;SDS011;10371;49.042;8.002;2023-06-22T01:24:12;11.63;;;10.63;;
20423;SDS011;10371;49.042;8.002;2023-06-22T01:25:20;12.73;;;11.63;;
20423;SDS011;10371;49.042;8.002;2023-06-22T01:29:17;12.35;;;11.25;;
20423;SDS011;10371;49.042;8.002;2023-06-22T01:30:19;12.93;;;11.73;;
20423;SDS011;10371;49.042;8.002;2023-06-22T01:31:22;12.18;;;11.02;;
20423;SDS011;10371;49.042;8.002;2023-06-22T01:32:24;12.82;;;11.55;;
20423;SDS011;10371;49.042;8.002;2023-06-22T01:33:25;12.70;;;11.60;;
20423;SDS011;10371;49.042;8.002;2023-06-22T01:34:25;14.52;;;12.15;;
20423;SDS011;10371;49.042;8.002;2023-06-22T01:35:28;12.50;;;11.30;;
20423;SDS011;10371;49.042;8.002;2023-06-22T01:36:29;13.07;;;11.77;;
20423;SDS011;10371;49.042;8.002;2023-06-22T01:37:31;12.70;;;11.68;;
20423;SDS011;10371;49.042;8.002;2023-06-22T01:38:34;11.98;;;10.88;;
20423;SDS011;10371;49.042;8.002;2023-06-22T01:39:36;12.98;;;11.68;;
20423;SDS011;10371;49.042;8.002;2023-06-22T01:40:36;12.60;;;11.50;;
20423;SDS011;10371;49.042;8.002;2023-06-22T01:41:37;12.77;;;11.57;;
20423;SDS011;10371;49.042;8.002;2023-06-22T01:42:38;12.43;;;11.20;;
20423;SDS011;10371;49.042;8.002;2023-06-22T01:43:39;13.60;;;12.20;;
20423;SDS011;10371;49.042;8.002;2023-06-22T01:44:40;13.48;;;11.95;;
20423;SDS011;10371;49.042;8.002;2023-06-22T01:45:40;13.38;;;12.02;;
20423;SDS011;10371;49.042;8.002;2023-06-22T01:46:42;12.80;;;11.60;;
20423;SDS011;10371;49.042;8.002;2023-06-22T01:47:42;12.38;;;11.18;;
20423;SDS011;10371;49.042;8.002;2023-06-22T01:48:43;12.55;;;11.35;;
20423;SDS011;10371;49.042;8.002;2023-06-22T01:49:43;13.25;;;12.05;;
20423;SDS011;10371;49.042;8.002;2023-06-22T01:50:44;12.38;;;11.27;;
20423;SDS011;10371;49.042;8.002;2023-06-22T01:51:44;12.95;;;11.68;;
20423;SDS011;10371;49.042;8.002;2023-06-22T01:52:45;12.57;;;11.52;;
20423;SDS011;10371;49.042;8.002;2023-06-22T01:53:45;13.07;;;11.82;;
20423;SDS011;10371;49.042;8.002;2023-06-22T01:54:47;12.82;;;11.63;;
20423;SDS011;10371;49.042;8.002;2023-06-22T01:55:48;13.18;;;11.88;;
20423;SDS011;10371;49.042;8.002;2023-06-22T01:56:49;12.80;;;11.57;;
20423;SDS011;10371;49.042;8.002;2023-06-22T01:57:49;12.18;;;10.98;;
20423;SDS011;10371;49.042;8.002;2023-06-22T01:58:52;11.88;;;10.68;;
20423;SDS011;10371;49.042;8.002;2023-06-22T02:00:01;12.77;;;11.65;;
20423;SDS011;10371;49.042;8.002;2023-06-22T02:01:11;11.15;;;10.18;;
20423;SDS011;10371;49.042;8.002;2023-06-22T02:02:14;11.93;;;10.73;;
20423;SDS011;10371;49.042;8.002;2023-06-22T02:03:21;12.25;;;11.07;;
20423;SDS011;10371;49.042;8.002;2023-06-22T02:04:41;10.65;;;9.55;;
20423;SDS011;10371;49.042;8.002;2023-06-22T02:05:47;10.60;;;9.57;;
20423;SDS011;10371;49.042;8.002;2023-06-22T02:06:51;11.23;;;10.15;;
20423;SDS011;10371;49.042;8.002;2023-06-22T02:08:00;11.55;;;10.45;;
20423;SDS011;10371;49.042;8.002;2023-06-22T02:09:11;9.57;;;8.70;;
20423;SDS011;10371;49.042;8.002;2023-06-22T02:10:15;11.05;;;9.95;;
20423;SDS011;10371;49.042;8.002;2023-06-22T02:11:19;10.48;;;9.48;;
20423;SDS011;10371;49.042;8.002;2023-06-22T02:12:22;11.57;;;10.48;;
20423;SDS011;10371;49.042;8.002;2023-06-22T02:13:24;10.65;;;9.85;;
20423;SDS011;10371;49.042;8.002;2023-06-22T02:14:25;9.95;;;9.15;;
20423;SDS011;10371;49.042;8.002;2023-06-22T02:15:26;10.95;;;9.93;;
20423;SDS011;10371;49.042;8.002;2023-06-22T02:16:27;11.55;;;10.32;;
20423;SDS011;10371;49.042;8.002;2023-06-22T02:17:30;10.07;;;9.18;;
20423;SDS011;10371;49.042;8.002;2023-06-22T02:18:33;10.25;;;9.35;;
20423;SDS011;10371;49.042;8.002;2023-06-22T02:19:36;10.98;;;9.93;;
20423;SDS011;10371;49.042;8.002;2023-06-22T02:20:37;11.18;;;10.13;;
20423;SDS011;10371;49.042;8.002;2023-06-22T02:21:38;11.65;;;10.07;;
20423;SDS011;10371;49.042;8.002;2023-06-22T02:22:38;10.75;;;9.73;;
20423;SDS011;10371;49.042;8.002;2023-06-22T02:23:38;10.32;;;9.43;;
20423;SDS011;10371;49.042;8.002;2023-06-22T02:24:39;10.70;;;9.60;;
20423;SDS011;10371;49.042;8.002;2023-06-22T02:25:39;10.60;;;9.68;;
20423;SDS011;10371;49.042;8.002;2023-06-22T02:26:39;10.43;;;9.48;;
20423;SDS011;10371;49.042;8.002;2023-06-22T02:27:42;11.52;;;10.18;;
20423;SDS011;10371;49.042;8.002;2023-06-22T02:28:42;10.98;;;9.82;;
20423;SDS011;10371;49.042;8.002;2023-06-22T02:29:43;10.93;;;9.93;;
20423;SDS011;10371;49.042;8.002;2023-06-22T02:30:43;12.27;;;11.23;;
20423;SDS011;10371;49.042;8.002;2023-06-22T02:31:43;11.48;;;10.48;;
20423;SDS011;10371;49.042;8.002;2023-06-22T02:32:44;11.32;;;10.23;;
20423;SDS011;10371;49.042;8.002;2023-06-22T02:33:44;11.10;;;9.80;;
20423;SDS011;10371;49.042;8.002;2023-06-22T02:34:45;10.45;;;9.55;;
20423;SDS011;10371;49.042;8.002;2023-06-22T02:35:47;11.38;;;10.27;;
20423;SDS011;10371;49.042;8.002;2023-06-22T02:36:49;11.50;;;10.02;;
20423;SDS011;10371;49.042;8.002;2023-06-22T02:37:52;11.10;;;10.07;;
20423;SDS011;10371;49.042;8.002;2023-06-22T02:38:54;11.95;;;10.65;;
20423;SDS011;10371;49.042;8.002;2023-06-22T02:39:56;12.05;;;10.88;;
20423;SDS011;10371;49.042;8.002;2023-06-22T02:40:56;11.43;;;10.27;;
20423;SDS011;10371;49.042;8.002;2023-06-22T02:41:57;11.70;;;10.60;;
20423;SDS011;10371;49.042;8.002;2023-06-22T02:42:57;12.60;;;11.02;;
20423;SDS011;10371;49.042;8.002;2023-06-22T02:44:01;11.82;;;10.73;;
20423;SDS011;10371;49.042;8.002;2023-06-22T02:45:02;11.80;;;10.60;;
20423;SDS011;10371;49.042;8.002;2023-06-22T02:46:02;11.85;;;10.82;;
20423;SDS011;10371;49.042;8.002;2023-06-22T02:47:02;11.77;;;10.77;;
20423;SDS011;10371;49.042;8.002;2023-06-22T02:48:03;11.50;;;10.40;;
20423;SDS011;10371;49.042;8.002;2023-06-22T02:49:04;11.65;;;10.57;;
20423;SDS011;10371;49.042;8.002;2023-06-22T02:50:05;15.88;;;10.93;;
20423;SDS011;10371;49.042;8.002;2023-06-22T02:51:05;13.32;;;11.23;;
20423;SDS011;10371;49.042;8.002;2023-06-22T02:52:06;13.85;;;10.75;;
20423;SDS011;10371;49.042;8.002;2023-06-22T02:53:06;13.20;;;10.43;;
20423;SDS011;10371;49.042;8.002;2023-06-22T02:54:07;11.73;;;10.70;;
20423;SDS011;10371;49.042;8.002;2023-06-22T02:55:07;13.15;;;11.23;;
20423;SDS011;10371;49.042;8.002;2023-06-22T02:56:08;12.50;;;11.25;;
20423;SDS011;10371;49.042;8.002;2023-06-22T02:57:08;12.07;;;10.98;;
20423;SDS011;10371;49.042;8.002;2023-06-22T02:58:13;12.70;;;11.45;;
20423;SDS011;10371;49.042;8.002;2023-06-22T02:59:13;12.48;;;11.48;;
20423;SDS011;10371;49.042;8.002;2023-06-22T03:00:14;15.48;;;11.90;;
20423;SDS011;10371;49.042;8.002;2023-06-22T03:01:17;13.30;;;11.93;;
20423;SDS011;10371;49.042;8.002;2023-06-22T03:02:23;12.98;;;11.88;;
20423;SDS011;10371;49.042;8.002;2023-06-22T03:03:23;14.10;;;12.80;;
20423;SDS011;10371;49.042;8.002;2023-06-22T03:04:26;13.18;;;11.90;;
20423;SDS011;10371;49.042;8.002;2023-06-22T03:05:26;14.80;;;13.25;;
20423;SDS011;10371;49.042;8.002;2023-06-22T03:06:26;13.70;;;12.52;;
20423;SDS011;10371;49.042;8.002;2023-06-22T03:07:28;14.80;;;12.07;;
20423;SDS011;10371;49.042;8.002;2023-06-22T03:08:30;13.85;;;12.55;;
20423;SDS011;10371;49.042;8.002;2023-06-22T03:09:30;14.27;;;12.75;;
20423;SDS011;10371;49.042;8.002;2023-06-22T03:10:30;13.00;;;11.68;;
20423;SDS011;10371;49.042;8.002;2023-06-22T03:11:31;13.77;;;12.68;;
20423;SDS011;10371;49.042;8.002;2023-06-22T03:12:32;14.40;;;12.90;;
20423;SDS011;10371;49.042;8.002;2023-06-22T03:13:33;14.20;;;12.88;;
20423;SDS011;10371;49.042;8.002;2023-06-22T03:14:33;15.75;;;13.35;;
20423;SDS011;10371;49.042;8.002;2023-06-22T03:15:33;14.52;;;13.02;;
20423;SDS011;10371;49.042;8.002;2023-06-22T03:16:34;14.48;;;13.00;;
20423;SDS011;10371;49.042;8.002;2023-06-22T03:17:34;14.18;;;12.88;;
20423;SDS011;10371;49.042;8.002;2023-06-22T03:18:35;13.68;;;12.35;;
20423;SDS011;10371;49.042;8.002;2023-06-22T03:19:35;14.07;;;12.68;;
20423;SDS011;10371;49.042;8.002;2023-06-22T03:20:36;14.15;;;12.75;;
20423;SDS011;10371;49.042;8.002;2023-06-22T03:21:37;14.00;;;12.60;;
20423;SDS011;10371;49.042;8.002;2023-06-22T03:22:41;14.25;;;12.85;;
20423;SDS011;10371;49.042;8.002;2023-06-22T03:23:42;14.25;;;12.88;;
20423;SDS011;10371;49.042;8.002;2023-06-22T03:24:43;13.85;;;12.38;;
20423;SDS011;10371;49.042;8.002;2023-06-22T03:25:43;14.10;;;12.70;;
20423;SDS011;10371;49.042;8.002;2023-06-22T03:26:46;13.95;;;12.57;;
20423;SDS011;10371;49.042;8.002;2023-06-22T03:27:47;14.00;;;12.20;;
20423;SDS011;10371;49.042;8.002;2023-06-22T03:28:48;13.23;;;11.93;;
20423;SDS011;10371;49.042;8.002;2023-06-22T03:29:48;13.43;;;12.13;;
20423;SDS011;10371;49.042;8.002;2023-06-22T03:30:48;13.25;;;12.05;;
20423;SDS011;10371;49.042;8.002;2023-06-22T03:31:48;14.50;;;12.50;;
20423;SDS011;10371;49.042;8.002;2023-06-22T03:32:49;16.08;;;13.18;;
20423;SDS011;10371;49.042;8.002;2023-06-22T03:33:49;14.93;;;12.75;;
20423;SDS011;10371;49.042;8.002;2023-06-22T03:34:50;14.10;;;12.30;;
20423;SDS011;10371;49.042;8.002;2023-06-22T03:35:50;13.60;;;12.18;;
20423;SDS011;10371;49.042;8.002;2023-06-22T03:36:50;15.02;;;12.43;;
20423;SDS011;10371;49.042;8.002;2023-06-22T03:37:51;13.95;;;12.63;;
20423;SDS011;10371;49.042;8.002;2023-06-22T03:38:51;13.32;;;11.98;;
20423;SDS011;10371;49.042;8.002;2023-06-22T03:39:51;14.57;;;13.07;;
20423;SDS011;10371;49.042;8.002;2023-06-22T03:40:52;14.63;;;13.10;;
20423;SDS011;10371;49.042;8.002;2023-06-22T03:41:52;17.15;;;13.73;;
20423;SDS011;10371;49.042;8.002;2023-06-22T03:42:53;16.80;;;13.10;;
20423;SDS011;10371;49.042;8.002;2023-06-22T03:43:53;13.85;;;12.55;;
20423;SDS011;10371;49.042;8.002;2023-06-22T03:44:53;14.25;;;12.93;;
20423;SDS011;10371;49.042;8.002;2023-06-22T03:45:53;14.15;;;12.95;;
20423;SDS011;10371;49.042;8.002;2023-06-22T03:46:54;14.98;;;12.48;;
20423;SDS011;10371;49.042;8.002;2023-06-22T03:47:54;13.85;;;12.45;;
20423;SDS011;10371;49.042;8.002;2023-06-22T03:48:54;14.45;;;12.95;;
20423;SDS011;10371;49.042;8.002;2023-06-22T03:49:54;14.65;;;13.20;;
20423;SDS011;10371;49.042;8.002;2023-06-22T03:50:55;14.10;;;12.70;;
20423;SDS011;10371;49.042;8.002;2023-06-22T03:51:55;15.13;;;13.40;;
20423;SDS011;10371;49.042;8.002;2023-06-22T03:52:55;16.88;;;12.95;;
20423;SDS011;10371;49.042;8.002;2023-06-22T03:53:56;14.07;;;12.70;;
20423;SDS011;10371;49.042;8.002;2023-06-22T03:54:56;13.63;;;12.43;;
20423;SDS011;10371;49.042;8.002;2023-06-22T03:55:56;14.65;;;13.05;;
20423;SDS011;10371;49.042;8.002;2023-06-22T03:56:57;14.75;;;13.30;;
20423;SDS011;10371;49.042;8.002;2023-06-22T03:57:58;15.27;;;13.43;;
20423;SDS011;10371;49.042;8.002;2023-06-22T03:58:58;15.02;;;13.60;;
20423;SDS011;10371;49.042;8.002;2023-06-22T03:59:58;14.15;;;12.82;;
20423;SDS011;10371;49.042;8.002;2023-06-22T04:00:59;14.38;;;12.90;;
20423;SDS011;10371;49.042;8.002;2023-06-22T04:02:00;15.27;;;13.00;;
20423;SDS011;10371;49.042;8.002;2023-06-22T04:03:00;14.68;;;13.13;;
20423;SDS011;10371;49.042;8.002;2023-06-22T04:04:00;15.02;;;13.43;;
20423;SDS011;10371;49.042;8.002;2023-06-22T04:05:00;17.38;;;14.52;;
20423;SDS011;10371;49.042;8.002;2023-06-22T04:06:01;15.00;;;13.40;;
20423;SDS011;10371;49.042;8.002;2023-06-22T04:07:01;15.38;;;13.82;;
20423;SDS011;10371;49.042;8.002;2023-06-22T04:08:01;15.45;;;13.80;;
20423;SDS011;10371;49.042;8.002;2023-06-22T04:09:01;15.10;;;13.63;;
20423;SDS011;10371;49.042;8.002;2023-06-22T04:10:03;16.45;;;13.82;;
20423;SDS011;10371;49.042;8.002;2023-06-22T04:11:04;14.48;;;13.07;;
20423;SDS011;10371;49.042;8.002;2023-06-22T04:12:05;15.32;;;13.82;;
20423;SDS011;10371;49.042;8.002;2023-06-22T04:13:06;15.65;;;14.15;;
20423;SDS011;10371;49.042;8.002;2023-06-22T04:14:07;15.30;;;13.30;;
20423;SDS011;10371;49.042;8.002;2023-06-22T04:15:07;17.70;;;13.77;;
20423;SDS011;10371;49.042;8.002;2023-06-22T04:16:08;15.70;;;13.98;;
20423;SDS011;10371;49.042;8.002;2023-06-22T04:17:08;14.88;;;13.32;;
20423;SDS011;10371;49.042;8.002;2023-06-22T04:18:08;14.95;;;13.45;;
20423;SDS011;10371;49.042;8.002;2023-06-22T04:19:09;16.77;;;14.70;;
20423;SDS011;10371;49.042;8.002;2023-06-22T04:20:15;16.20;;;14.73;;
20423;SDS011;10371;49.042;8.002;2023-06-22T04:21:16;16.02;;;14.20;;
20423;SDS011;10371;49.042;8.002;2023-06-22T04:22:16;16.05;;;14.40;;
20423;SDS011;10371;49.042;8.002;2023-06-22T04:23:16;17.77;;;13.57;;
20423;SDS011;10371;49.042;8.002;2023-06-22T04:24:16;15.45;;;13.85;;
20423;SDS011;10371;49.042;8.002;2023-06-22T04:25:17;17.08;;;14.70;;
20423;SDS011;10371;49.042;8.002;2023-06-22T04:26:17;17.67;;;14.45;;
20423;SDS011;10371;49.042;8.002;2023-06-22T04:27:20;15.63;;;14.10;;
20423;SDS011;10371;49.042;8.002;2023-06-22T04:28:23;15.90;;;14.13;;
20423;SDS011;10371;49.042;8.002;2023-06-22T04:29:23;16.13;;;13.88;;
20423;SDS011;10371;49.042;8.002;2023-06-22T04:30:28;18.95;;;14.18;;
20423;SDS011;10371;49.042;8.002;2023-06-22T04:31:31;14.88;;;13.40;;
20423;SDS011;10371;49.042;8.002;2023-06-22T04:32:36;15.75;;;14.32;;
20423;SDS011;10371;49.042;8.002;2023-06-22T04:33:36;15.55;;;13.88;;
20423;SDS011;10371;49.042;8.002;2023-06-22T04:34:40;15.50;;;14.00;;
20423;SDS011;10371;49.042;8.002;2023-06-22T04:35:41;15.75;;;13.98;;
20423;SDS011;10371;49.042;8.002;2023-06-22T04:36:44;16.40;;;14.63;;
20423;SDS011;10371;49.042;8.002;2023-06-22T04:37:45;15.52;;;14.02;;
20423;SDS011;10371;49.042;8.002;2023-06-22T04:38:46;16.20;;;13.63;;
20423;SDS011;10371;49.042;8.002;2023-06-22T04:39:46;15.43;;;14.10;;
20423;SDS011;10371;49.042;8.002;2023-06-22T04:40:46;18.08;;;13.85;;
20423;SDS011;10371;49.042;8.002;2023-06-22T04:41:46;15.38;;;13.75;;
20423;SDS011;10371;49.042;8.002;2023-06-22T04:42:47;15.35;;;13.90;;
20423;SDS011;10371;49.042;8.002;2023-06-22T04:43:52;15.63;;;14.13;;
20423;SDS011;10371;49.042;8.002;2023-06-22T04:44:54;16.17;;;14.18;;
20423;SDS011;10371;49.042;8.002;2023-06-22T04:45:54;14.73;;;13.25;;
20423;SDS011;10371;49.042;8.002;2023-06-22T04:46:56;14.77;;;13.35;;
20423;SDS011;10371;49.042;8.002;2023-06-22T04:48:02;14.70;;;13.00;;
20423;SDS011;10371;49.042;8.002;2023-06-22T04:49:06;14.70;;;13.32;;
20423;SDS011;10371;49.042;8.002;2023-06-22T04:50:11;15.68;;;14.00;;
20423;SDS011;10371;49.042;8.002;2023-06-22T04:51:11;14.50;;;13.18;;
20423;SDS011;10371;49.042;8.002;2023-06-22T04:52:12;14.50;;;13.02;;
20423;SDS011;10371;49.042;8.002;2023-06-22T04:53:13;16.38;;;13.45;;
20423;SDS011;10371;49.042;8.002;2023-06-22T04:54:14;14.70;;;13.38;;
20423;SDS011;10371;49.042;8.002;2023-06-22T04:55:14;15.20;;;13.55;;
20423;SDS011;10371;49.042;8.002;2023-06-22T04:56:18;14.75;;;13.35;;
20423;SDS011;10371;49.042;8.002;2023-06-22T04:57:18;15.40;;;13.80;;
20423;SDS011;10371;49.042;8.002;2023-06-22T04:58:18;14.55;;;13.15;;
20423;SDS011;10371;49.042;8.002;2023-06-22T04:59:21;15.93;;;13.80;;
20423;SDS011;10371;49.042;8.002;2023-06-22T05:00:22;15.65;;;13.95;;
20423;SDS011;10371;49.042;8.002;2023-06-22T05:01:23;14.35;;;13.07;;
20423;SDS011;10371;49.042;8.002;2023-06-22T05:02:24;13.70;;;12.32;;
20423;SDS011;10371;49.042;8.002;2023-06-22T05:03:27;14.82;;;13.27;;
20423;SDS011;10371;49.042;8.002;2023-06-22T05:04:28;17.08;;;13.95;;
20423;SDS011;10371;49.042;8.002;2023-06-22T05:05:32;14.43;;;12.95;;
20423;SDS011;10371;49.042;8.002;2023-06-22T05:06:33;14.18;;;12.90;;
20423;SDS011;10371;49.042;8.002;2023-06-22T05:07:33;14.55;;;13.25;;
20423;SDS011;10371;49.042;8.002;2023-06-22T05:08:34;15.35;;;13.85;;
20423;SDS011;10371;49.042;8.002;2023-06-22T05:09:34;16.08;;;14.60;;
20423;SDS011;10371;49.042;8.002;2023-06-22T05:10:35;14.90;;;13.52;;
20423;SDS011;10371;49.042;8.002;2023-06-22T05:11:35;15.48;;;14.18;;
20423;SDS011;10371;49.042;8.002;2023-06-22T05:12:35;18.08;;;14.25;;
20423;SDS011;10371;49.042;8.002;2023-06-22T05:13:36;15.65;;;14.13;;
20423;SDS011;10371;49.042;8.002;2023-06-22T05:14:36;15.43;;;14.13;;
20423;SDS011;10371;49.042;8.002;2023-06-22T05:15:36;15.07;;;13.43;;
20423;SDS011;10371;49.042;8.002;2023-06-22T05:16:41;15.50;;;14.07;;
20423;SDS011;10371;49.042;8.002;2023-06-22T05:17:41;15.13;;;13.65;;
20423;SDS011;10371;49.042;8.002;2023-06-22T05:18:45;15.00;;;13.55;;
20423;SDS011;10371;49.042;8.002;2023-06-22T05:19:45;15.63;;;14.23;;
20423;SDS011;10371;49.042;8.002;2023-06-22T05:20:48;15.52;;;14.05;;
20423;SDS011;10371;49.042;8.002;2023-06-22T05:21:48;17.00;;;15.23;;
20423;SDS011;10371;49.042;8.002;2023-06-22T05:22:48;15.93;;;14.32;;
20423;SDS011;10371;49.042;8.002;2023-06-22T05:23:49;16.15;;;14.57;;
20423;SDS011;10371;49.042;8.002;2023-06-22T05:24:49;15.85;;;14.27;;
20423;SDS011;10371;49.042;8.002;2023-06-22T05:25:49;16.20;;;14.68;;
20423;SDS011;10371;49.042;8.002;2023-06-22T05:26:50;15.75;;;14.32;;
20423;SDS011;10371;49.042;8.002;2023-06-22T05:27:50;15.40;;;14.00;;
20423;SDS011;10371;49.042;8.002;2023-06-22T05:28:51;15.93;;;14.57;;
20423;SDS011;10371;49.042;8.002;2023-06-22T05:29:52;15.30;;;13.80;;
20423;SDS011;10371;49.042;8.002;2023-06-22T05:30:53;14.70;;;13.30;;
20423;SDS011;10371;49.042;8.002;2023-06-22T05:31:53;15.93;;;14.32;;
20423;SDS011;10371;49.042;8.002;2023-06-22T05:32:53;15.23;;;13.68;;
20423;SDS011;10371;49.042;8.002;2023-06-22T05:33:54;14.25;;;12.90;;
20423;SDS011;10371;49.042;8.002;2023-06-22T05:34:55;13.68;;;12.40;;
20423;SDS011;10371;49.042;8.002;2023-06-22T05:35:55;13.68;;;12.45;;
20423;SDS011;10371;49.042;8.002;2023-06-22T05:36:56;13.50;;;12.30;;
20423;SDS011;10371;49.042;8.002;2023-06-22T05:37:58;14.80;;;12.80;;
20423;SDS011;10371;49.042;8.002;2023-06-22T05:38:59;14.55;;;13.15;;
20423;SDS011;10371;49.042;8.002;2023-06-22T05:39:59;13.65;;;12.23;;
20423;SDS011;10371;49.042;8.002;2023-06-22T05:40:59;14.48;;;12.98;;
20423;SDS011;10371;49.042;8.002;2023-06-22T05:42:00;13.48;;;12.27;;
20423;SDS011;10371;49.042;8.002;2023-06-22T05:43:00;13.93;;;12.63;;
20423;SDS011;10371;49.042;8.002;2023-06-22T05:44:01;13.82;;;12.40;;
20423;SDS011;10371;49.042;8.002;2023-06-22T05:45:02;13.93;;;12.52;;
20423;SDS011;10371;49.042;8.002;2023-06-22T05:46:03;13.73;;;12.52;;
20423;SDS011;10371;49.042;8.002;2023-06-22T05:47:04;14.25;;;12.85;;
20423;SDS011;10371;49.042;8.002;2023-06-22T05:48:04;12.98;;;11.75;;
20423;SDS011;10371;49.042;8.002;2023-06-22T05:49:05;13.98;;;12.50;;
20423;SDS011;10371;49.042;8.002;2023-06-22T05:50:05;13.57;;;12.32;;
20423;SDS011;10371;49.042;8.002;2023-06-22T05:51:08;12.93;;;11.70;;
20423;SDS011;10371;49.042;8.002;2023-06-22T05:52:08;13.55;;;12.20;;
20423;SDS011;10371;49.042;8.002;2023-06-22T05:53:08;13.07;;;12.02;;
20423;SDS011;10371;49.042;8.002;2023-06-22T05:54:09;12.57;;;11.27;;
20423;SDS011;10371;49.042;8.002;2023-06-22T05:55:10;13.30;;;11.75;;
20423;SDS011;10371;49.042;8.002;2023-06-22T05:56:10;13.60;;;12.20;;
20423;SDS011;10371;49.042;8.002;2023-06-22T05:57:10;12.93;;;11.65;;
20423;SDS011;10371;49.042;8.002;2023-06-22T05:58:10;13.23;;;11.95;;
20423;SDS011;10371;49.042;8.002;2023-06-22T05:59:11;13.25;;;11.88;;
20423;SDS011;10371;49.042;8.002;2023-06-22T06:00:12;12.98;;;11.50;;
20423;SDS011;10371;49.042;8.002;2023-06-22T06:01:13;12.15;;;11.05;;
20423;SDS011;10371;49.042;8.002;2023-06-22T06:02:15;12.32;;;11.23;;
20423;SDS011;10371;49.042;8.002;2023-06-22T06:03:15;12.93;;;11.63;;
20423;SDS011;10371;49.042;8.002;2023-06-22T06:04:17;11.80;;;10.77;;
20423;SDS011;10371;49.042;8.002;2023-06-22T06:05:18;13.15;;;11.65;;
20423;SDS011;10371;49.042;8.002;2023-06-22T06:06:19;12.27;;;11.20;;
20423;SDS011;10371;49.042;8.002;2023-06-22T06:07:21;12.32;;;11.10;;